createdAt,value
2019-02-22T00:05:19.243Z,51.22
2019-02-22T00:11:14.268Z,44.32
2019-02-22T00:17:09.260Z,56.23
2019-02-22T00:23:04.288Z,47.17
2019-02-22T00:28:59.248Z,47.42
2019-02-22T00:34:54.237Z,46.8
2019-02-22T00:40:49.260Z,56.76
2019-02-22T00:46:44.299Z,58.46
2019-02-22T00:52:39.274Z,49.9
2019-02-22T00:58:34.245Z,46.19
2019-02-22T01:04:29.251Z,46.82
2019-02-22T01:10:30.968Z,40.73
2019-02-22T01:16:19.261Z,41.27
2019-02-22T01:22:14.288Z,38.43
2019-02-22T01:28:09.346Z,72.41
2019-02-22T01:34:04.278Z,59.18
2019-02-22T01:39:59.257Z,41.62
2019-02-22T01:45:54.270Z,65.28
2019-02-22T01:51:49.280Z,75.18
2019-02-22T01:57:44.249Z,62.64
2019-02-22T02:03:39.268Z,57.3
2019-02-22T02:09:34.304Z,51.41
2019-02-22T02:15:29.268Z,61.84
2019-02-22T02:21:24.257Z,59.56
2019-02-22T02:27:19.302Z,48.58
2019-02-22T02:33:14.282Z,60.11
2019-02-22T02:39:09.292Z,55.34
2019-02-22T02:45:04.276Z,52.97
2019-02-22T02:50:59.277Z,55.17
2019-02-22T02:56:54.322Z,58.2
2019-02-22T03:02:49.282Z,74.59
2019-02-22T03:08:44.282Z,65.37
2019-02-22T03:14:39.288Z,53.92
2019-02-22T03:20:34.305Z,61.29
2019-02-22T03:26:29.326Z,62.02
2019-02-22T03:32:24.323Z,54.43
2019-02-22T03:38:19.275Z,65.65
2019-02-22T03:44:14.269Z,61.93
2019-02-22T03:50:09.331Z,58.15
2019-02-22T03:56:04.317Z,59.55
2019-02-22T04:01:59.278Z,59.92
2019-02-22T04:07:54.281Z,59.68
2019-02-22T04:13:49.337Z,59.8
2019-02-22T04:19:44.309Z,57.44
2019-02-22T04:25:39.290Z,50.81
2019-02-22T04:31:34.265Z,56.44
2019-02-22T04:37:29.273Z,58.37
2019-02-22T04:43:24.287Z,54.46
2019-02-22T04:49:19.289Z,55
2019-02-22T04:55:14.302Z,56.94
2019-02-22T05:01:09.312Z,56.77
2019-02-22T05:07:04.329Z,52.39
2019-02-22T05:12:59.284Z,56.44
2019-02-22T05:18:54.292Z,55.25
2019-02-22T05:24:49.421Z,52.29
2019-02-22T05:30:44.284Z,43.68
2019-02-22T05:36:39.333Z,45
2019-02-22T05:42:34.289Z,50.13
2019-02-22T05:48:29.273Z,92.02
2019-02-22T05:54:24.305Z,61.87
2019-02-22T06:00:19.296Z,70.77
2019-02-22T06:06:14.399Z,47.8
2019-02-22T06:12:09.302Z,48.31
2019-02-22T06:18:04.308Z,54.48
2019-02-22T06:23:59.341Z,36.82
2019-02-22T06:29:54.315Z,31.04
2019-02-22T06:35:49.303Z,31.25
2019-02-22T06:41:44.309Z,35.74
2019-02-22T06:47:39.322Z,31.79
2019-02-22T06:53:34.291Z,31.14
2019-02-22T06:59:29.319Z,35.25
2019-02-22T07:05:24.271Z,28.99
2019-02-22T07:11:19.293Z,39.1
2019-02-22T07:17:14.302Z,52.43
2019-02-22T07:23:09.281Z,60.03
2019-02-22T07:29:04.287Z,58.44
2019-02-22T07:34:59.296Z,52.15
2019-02-22T07:40:54.289Z,53.31
2019-02-22T07:46:49.583Z,60.01
2019-02-22T07:52:45.245Z,61.38
2019-02-22T07:58:39.327Z,64.21
2019-02-22T08:04:34.322Z,57.52
2019-02-22T08:10:29.286Z,60.93
2019-02-22T08:16:24.317Z,59.27
2019-02-22T08:22:20.686Z,60.16
2019-02-22T08:28:14.313Z,63.91
2019-02-22T08:34:09.310Z,60.63
2019-02-22T08:40:04.312Z,51.33
2019-02-22T08:45:59.307Z,48.42
2019-02-22T08:51:54.317Z,45.26
2019-02-22T08:57:49.307Z,47.35
2019-02-22T09:03:50.057Z,40.14
2019-02-22T09:09:39.301Z,36.43
2019-02-22T09:15:34.308Z,33.25
2019-02-22T09:21:29.329Z,39.11
2019-02-22T09:27:24.314Z,27.84
2019-02-22T09:33:19.313Z,27.44
2019-02-22T09:39:14.376Z,26.77
2019-02-22T09:45:09.382Z,25.21
2019-02-22T09:51:04.303Z,25.89
2019-02-22T09:57:01.702Z,26.05
2019-02-22T10:02:54.325Z,27.8
2019-02-22T10:08:49.329Z,33.25
2019-02-22T10:14:44.383Z,28.66
2019-02-22T10:20:39.323Z,29.34
2019-02-22T10:26:34.331Z,25.2
2019-02-22T10:32:29.363Z,25.5
2019-02-22T10:38:24.356Z,37.53
2019-02-22T10:44:19.333Z,28.4
2019-02-22T10:50:14.342Z,35.36
2019-02-22T10:56:09.350Z,36.43
2019-02-22T11:02:04.343Z,29.49
2019-02-22T11:07:59.357Z,35.46
2019-02-22T11:13:54.401Z,35.57
2019-02-22T11:19:49.340Z,33.38
2019-02-22T11:25:44.354Z,34.58
2019-02-22T11:31:39.334Z,29.37
2019-02-22T11:37:34.353Z,43.73
2019-02-22T11:43:29.335Z,38.67
2019-02-22T11:49:24.337Z,29.52
2019-02-22T11:55:19.340Z,32.31
2019-02-22T12:01:14.345Z,35.93
2019-02-22T12:07:09.358Z,35.69
2019-02-22T12:13:04.353Z,31.93
2019-02-22T12:18:59.368Z,36.67
2019-02-22T12:24:54.369Z,37.16
2019-02-22T12:30:49.357Z,30.21
2019-02-22T12:36:44.377Z,34.07
2019-02-22T12:42:39.397Z,37.57
2019-02-22T12:48:34.367Z,38.36
2019-02-22T12:54:29.394Z,28.73
2019-02-22T13:00:24.391Z,31.72
2019-02-22T13:06:19.366Z,34.45
2019-02-22T13:12:17.136Z,29.83
2019-02-22T13:18:09.376Z,32.23
2019-02-22T13:24:04.441Z,38.89
2019-02-22T13:29:59.423Z,29.91
2019-02-22T13:35:54.377Z,34.5
2019-02-22T13:41:49.371Z,33.37
2019-02-22T13:47:44.390Z,34.56
2019-02-22T13:53:39.419Z,30.58
2019-02-22T13:59:34.400Z,31.93
2019-02-22T14:05:29.435Z,26.93
2019-02-22T14:11:24.388Z,26.99
2019-02-22T14:17:19.410Z,31.65
2019-02-22T14:23:14.423Z,30.16
2019-02-22T14:29:09.397Z,29.55
2019-02-22T14:35:04.422Z,27.51
2019-02-22T14:40:59.395Z,24.15
2019-02-22T14:46:54.934Z,24.26
2019-02-22T14:52:49.413Z,25.56
2019-02-22T14:58:44.423Z,24.67
2019-02-22T15:04:39.416Z,26
2019-02-22T15:10:34.418Z,22.2
2019-02-22T15:16:29.464Z,23.56
2019-02-22T15:22:24.426Z,27.56
2019-02-22T15:28:19.434Z,22.64
2019-02-22T15:34:14.445Z,19.66
2019-02-22T15:40:09.439Z,21.98
2019-02-22T15:46:11.762Z,20.59
2019-02-22T15:51:59.443Z,22.09
2019-02-22T15:57:54.443Z,21.73
2019-02-22T16:03:49.417Z,16.81
2019-02-22T16:09:44.472Z,23.22
2019-02-22T16:15:40.590Z,28.37
2019-02-22T16:21:34.480Z,23.93
2019-02-22T16:27:29.440Z,25.9
2019-02-22T16:33:24.479Z,35.31
2019-02-22T16:39:19.468Z,24.99
2019-02-22T16:45:14.472Z,28.31
2019-02-22T16:51:09.470Z,48.14
2019-02-22T16:57:04.491Z,73.88
2019-02-22T17:02:59.456Z,65.24
2019-02-22T17:08:54.457Z,71.06
2019-02-22T17:14:49.470Z,67.67
2019-02-22T17:20:44.498Z,74.67
2019-02-22T17:26:39.444Z,76.88
2019-02-22T17:32:34.468Z,60.84
2019-02-22T17:38:29.519Z,100.32
2019-02-22T17:44:24.474Z,117.4
2019-02-22T17:50:19.486Z,60.28
2019-02-22T17:56:14.472Z,38.81
2019-02-22T18:02:09.467Z,64.56
2019-02-22T18:08:04.520Z,61.65
2019-02-22T18:13:59.476Z,58.87
2019-02-22T18:19:54.491Z,60.82
2019-02-22T18:25:49.503Z,84.01
2019-02-22T18:31:44.487Z,83.19
2019-02-22T18:37:39.554Z,74.51
2019-02-22T18:43:34.469Z,64.5
2019-02-22T18:49:29.497Z,190.19
2019-02-22T18:55:24.498Z,58.67
2019-02-22T19:01:19.518Z,55.25
2019-02-22T19:07:14.486Z,82.82
2019-02-22T19:13:09.486Z,167.23
2019-02-22T19:19:04.525Z,114.57
2019-02-22T19:24:59.478Z,81
2019-02-22T19:30:54.499Z,55.15
2019-02-22T19:36:49.493Z,92.1
2019-02-22T19:42:44.489Z,57.89
2019-02-22T19:48:39.502Z,28.1
2019-02-22T19:54:34.489Z,75.1
2019-02-22T20:00:29.498Z,49.17
2019-02-22T20:06:24.498Z,40.07
2019-02-22T20:12:19.484Z,31.57
2019-02-22T20:18:14.503Z,25.93
2019-02-22T20:24:09.489Z,40.28
2019-02-22T20:30:04.570Z,49.84
2019-02-22T20:35:59.529Z,34.04
2019-02-22T20:41:54.652Z,28.97
2019-02-22T20:47:49.553Z,35
2019-02-22T20:53:44.503Z,25.08
2019-02-22T20:59:39.509Z,32.26
2019-02-22T21:05:34.505Z,24.11
2019-02-22T21:11:29.598Z,25.93
2019-02-22T21:17:24.497Z,27.28
2019-02-22T21:23:19.503Z,28.56
2019-02-22T21:29:14.508Z,23.32
2019-02-22T21:35:09.540Z,20.51
2019-02-22T21:41:04.538Z,22.1
2019-02-22T21:46:59.505Z,18.4
2019-02-22T21:52:54.601Z,20.31
2019-02-22T21:58:49.538Z,22.77
2019-02-22T22:04:44.593Z,19.91
2019-02-22T22:10:39.537Z,19.13
2019-02-22T22:16:34.565Z,30
2019-02-22T22:22:29.512Z,22.4
2019-02-22T22:28:24.502Z,23.15
2019-02-22T22:34:19.514Z,27.47
2019-02-22T22:40:14.521Z,19.54
2019-02-22T22:46:09.563Z,23.65
2019-02-22T22:52:04.542Z,22.57
2019-02-22T22:57:59.524Z,39.06
2019-02-22T23:03:54.546Z,31.79
2019-02-22T23:09:49.531Z,33.22
2019-02-22T23:15:44.508Z,36.73
2019-02-22T23:21:39.544Z,39.93
2019-02-22T23:27:34.567Z,36.87
2019-02-22T23:33:29.537Z,29.9
2019-02-22T23:39:24.574Z,24.18
2019-02-22T23:45:19.539Z,30.07
2019-02-22T23:51:14.530Z,20.86
2019-02-22T23:57:09.580Z,25.94
